N552PA ZGGG-ZGGG
Flight info
| Callsign | N552PA |
|---|---|
| Flight time | 0h 16m |
| Altitude | 1000 |
| Route | LOCAL |
| Aircraft | DA42/L-SBDE1E2E3FGHIJ1J4J5J7M3RWXYZ/LB1V1D1 |
Departure
| Time | 2026-05-06 13:32 |
|---|---|
| Airport | Guangzhou Baiyun International Airport (ZGGG) |
Arrival
| Time | 2026-05-06 13:49 |
|---|---|
| Airport | Guangzhou Baiyun International Airport (ZGGG) |
| Time | Latitude | Longitude | Altitude | Speed | Heading |
|---|---|---|---|---|---|
| 2026-05-06 13:16 | 23.35610 | 113.31513 | 48 ft | 0 kts | 283° |
| 2026-05-06 13:26 | 23.35613 | 113.31508 | 48 ft | 1 kts | 316° |
| 2026-05-06 13:27 | 23.35624 | 113.31510 | 48 ft | 4 kts | 102° |
| 2026-05-06 13:27 | 23.35608 | 113.31531 | 48 ft | 0 kts | 112° |
| 2026-05-06 13:28 | 23.35598 | 113.31563 | 48 ft | 14 kts | 106° |
| 2026-05-06 13:28 | 23.35546 | 113.31676 | 48 ft | 18 kts | 108° |
| 2026-05-06 13:28 | 23.35518 | 113.31799 | 48 ft | 13 kts | 104° |
| 2026-05-06 13:28 | 23.35510 | 113.31850 | 48 ft | 3 kts | 89° |
| 2026-05-06 13:29 | 23.35510 | 113.31853 | 48 ft | 0 kts | 86° |
| 2026-05-06 13:30 | 23.35509 | 113.31857 | 48 ft | 2 kts | 101° |
| 2026-05-06 13:30 | 23.35504 | 113.31917 | 48 ft | 11 kts | 60° |
| 2026-05-06 13:30 | 23.35517 | 113.31931 | 48 ft | 0 kts | 25° |
| 2026-05-06 13:31 | 23.35561 | 113.31944 | 48 ft | 21 kts | 12° |
| 2026-05-06 13:31 | 23.35883 | 113.32030 | 48 ft | 70 kts | 14° |
| 2026-05-06 13:31 | 23.36407 | 113.32149 | 147 ft | 80 kts | 18° |
| 2026-05-06 13:31 | 23.36983 | 113.32269 | 259 ft | 86 kts | 14° |
| 2026-05-06 13:32 | 23.37583 | 113.32382 | 385 ft | 88 kts | 14° |
| 2026-05-06 13:32 | 23.38189 | 113.32497 | 489 ft | 90 kts | 14° |
| 2026-05-06 13:32 | 23.38815 | 113.32663 | 583 ft | 93 kts | 22° |
| 2026-05-06 13:32 | 23.39424 | 113.32890 | 693 ft | 92 kts | 25° |
| 2026-05-06 13:33 | 23.40033 | 113.33147 | 773 ft | 94 kts | 29° |
| 2026-05-06 13:33 | 23.40429 | 113.33677 | 852 ft | 92 kts | 79° |
| 2026-05-06 13:33 | 23.40395 | 113.34364 | 946 ft | 91 kts | 102° |
| 2026-05-06 13:33 | 23.40260 | 113.35035 | 1027 ft | 92 kts | 105° |
| 2026-05-06 13:34 | 23.40098 | 113.35713 | 1108 ft | 93 kts | 115° |
| 2026-05-06 13:34 | 23.39601 | 113.36136 | 1189 ft | 95 kts | 165° |
| 2026-05-06 13:34 | 23.38940 | 113.36076 | 1279 ft | 96 kts | 192° |
| 2026-05-06 13:34 | 23.38292 | 113.35885 | 1366 ft | 96 kts | 194° |
| 2026-05-06 13:35 | 23.37645 | 113.35682 | 1438 ft | 97 kts | 194° |
| 2026-05-06 13:35 | 23.36987 | 113.35480 | 1492 ft | 99 kts | 194° |
| 2026-05-06 13:35 | 23.36305 | 113.35269 | 1506 ft | 103 kts | 194° |
| 2026-05-06 13:35 | 23.35600 | 113.35050 | 1506 ft | 105 kts | 194° |
| 2026-05-06 13:36 | 23.34885 | 113.34832 | 1494 ft | 107 kts | 194° |
| 2026-05-06 13:36 | 23.34169 | 113.34614 | 1488 ft | 107 kts | 194° |
| 2026-05-06 13:36 | 23.33448 | 113.34393 | 1484 ft | 106 kts | 194° |
| 2026-05-06 13:36 | 23.32732 | 113.34175 | 1475 ft | 107 kts | 194° |
| 2026-05-06 13:37 | 23.32042 | 113.33868 | 1446 ft | 114 kts | 218° |
| 2026-05-06 13:37 | 23.31688 | 113.33027 | 1457 ft | 125 kts | 271° |
| 2026-05-06 13:37 | 23.31820 | 113.32073 | 1490 ft | 126 kts | 283° |
| 2026-05-06 13:37 | 23.32035 | 113.31106 | 1128 ft | 137 kts | 289° |
| 2026-05-06 13:38 | 23.32628 | 113.30693 | 1075 ft | 110 kts | 15° |
| 2026-05-06 13:38 | 23.33266 | 113.31055 | 693 ft | 101 kts | 38° |
| 2026-05-06 13:38 | 23.33828 | 113.31453 | 475 ft | 92 kts | 33° |
| 2026-05-06 13:38 | 23.34416 | 113.31663 | 295 ft | 85 kts | 21° |
| 2026-05-06 13:39 | 23.34970 | 113.31799 | 160 ft | 79 kts | 17° |
| 2026-05-06 13:39 | 23.35498 | 113.31928 | 70 ft | 79 kts | 19° |
| 2026-05-06 13:39 | 23.36009 | 113.32074 | 48 ft | 75 kts | 10° |
| 2026-05-06 13:39 | 23.36581 | 113.32216 | 116 ft | 87 kts | 19° |
| 2026-05-06 13:40 | 23.37190 | 113.32343 | 196 ft | 90 kts | 21° |
| 2026-05-06 13:40 | 23.37812 | 113.32512 | 288 ft | 92 kts | 21° |
| 2026-05-06 13:40 | 23.38434 | 113.32693 | 376 ft | 93 kts | 18° |
| 2026-05-06 13:40 | 23.39092 | 113.32880 | 368 ft | 110 kts | 20° |
| 2026-05-06 13:41 | 23.39855 | 113.33115 | 478 ft | 114 kts | 19° |
| 2026-05-06 13:41 | 23.40635 | 113.33356 | 582 ft | 117 kts | 20° |
| 2026-05-06 13:41 | 23.41410 | 113.33601 | 703 ft | 117 kts | 25° |
| 2026-05-06 13:41 | 23.41940 | 113.34220 | 822 ft | 114 kts | 75° |
| 2026-05-06 13:42 | 23.41921 | 113.35076 | 950 ft | 114 kts | 102° |
| 2026-05-06 13:42 | 23.41751 | 113.35927 | 1064 ft | 115 kts | 104° |
| 2026-05-06 13:42 | 23.41330 | 113.36653 | 1174 ft | 117 kts | 149° |
| 2026-05-06 13:42 | 23.40532 | 113.36774 | 1304 ft | 119 kts | 189° |
| 2026-05-06 13:43 | 23.39730 | 113.36568 | 1414 ft | 120 kts | 194° |
| 2026-05-06 13:43 | 23.38909 | 113.36324 | 1538 ft | 120 kts | 194° |
| 2026-05-06 13:43 | 23.38103 | 113.36083 | 1636 ft | 122 kts | 194° |
| 2026-05-06 13:43 | 23.37275 | 113.35834 | 1750 ft | 122 kts | 195° |
| 2026-05-06 13:44 | 23.36452 | 113.35590 | 1852 ft | 122 kts | 194° |
| 2026-05-06 13:44 | 23.35635 | 113.35346 | 1957 ft | 122 kts | 194° |
| 2026-05-06 13:44 | 23.34809 | 113.35103 | 2061 ft | 122 kts | 194° |
| 2026-05-06 13:44 | 23.33979 | 113.34859 | 2160 ft | 123 kts | 194° |
| 2026-05-06 13:45 | 23.33156 | 113.34616 | 2262 ft | 123 kts | 194° |
| 2026-05-06 13:45 | 23.31404 | 113.34094 | 2098 ft | 133 kts | 195° |
| 2026-05-06 13:45 | 23.30519 | 113.33751 | 1930 ft | 138 kts | 216° |
| 2026-05-06 13:46 | 23.30078 | 113.32841 | 1801 ft | 142 kts | 266° |
| 2026-05-06 13:46 | 23.30214 | 113.31781 | 1683 ft | 142 kts | 284° |
| 2026-05-06 13:46 | 23.30443 | 113.30893 | 1651 ft | 115 kts | 302° |
| 2026-05-06 13:46 | 23.31090 | 113.30654 | 1443 ft | 108 kts | 10° |
| 2026-05-06 13:47 | 23.31801 | 113.30901 | 1080 ft | 110 kts | 30° |
| 2026-05-06 13:47 | 23.32477 | 113.31226 | 883 ft | 103 kts | 22° |
| 2026-05-06 13:47 | 23.33172 | 113.31423 | 611 ft | 104 kts | 20° |
| 2026-05-06 13:47 | 23.33865 | 113.31580 | 390 ft | 99 kts | 13° |
| 2026-05-06 13:48 | 23.34512 | 113.31699 | 265 ft | 93 kts | 15° |
| 2026-05-06 13:48 | 23.35159 | 113.31837 | 134 ft | 95 kts | 17° |
| 2026-05-06 13:48 | 23.35791 | 113.32003 | 48 ft | 87 kts | 17° |
| 2026-05-06 13:48 | 23.36289 | 113.32140 | 48 ft | 61 kts | 14° |
| 2026-05-06 13:49 | 23.36656 | 113.32237 | 48 ft | 47 kts | 12° |
| 2026-05-06 13:49 | 23.36938 | 113.32283 | 48 ft | 34 kts | 360° |
| 2026-05-06 13:49 | 23.36998 | 113.32275 | 48 ft | 8 kts | 340° |
| 2026-05-06 13:49 | 23.37033 | 113.32264 | 48 ft | 0 kts | 341° |
| 2026-05-06 13:50 | 23.37035 | 113.32263 | 48 ft | 1 kts | 344° |
| 2026-05-06 13:51 | 23.37037 | 113.32263 | 48 ft | 0 kts | 345° |
| 2026-05-06 13:51 | 23.37047 | 113.32259 | 48 ft | 6 kts | 342° |
| 2026-05-06 13:51 | 23.37080 | 113.32257 | 48 ft | 5 kts | 338° |
| 2026-05-06 13:52 | 23.37085 | 113.32188 | 48 ft | 11 kts | 218° |
| 2026-05-06 13:52 | 23.37008 | 113.32163 | 48 ft | 15 kts | 193° |
| 2026-05-06 13:52 | 23.36839 | 113.32116 | 48 ft | 26 kts | 192° |
| 2026-05-06 13:52 | 23.36679 | 113.32072 | 48 ft | 22 kts | 190° |
| 2026-05-06 13:53 | 23.36526 | 113.32032 | 48 ft | 21 kts | 191° |
| 2026-05-06 13:53 | 23.36401 | 113.31998 | 48 ft | 16 kts | 192° |
| 2026-05-06 13:53 | 23.36271 | 113.31963 | 48 ft | 17 kts | 194° |
| 2026-05-06 13:53 | 23.36167 | 113.31934 | 48 ft | 13 kts | 195° |
| 2026-05-06 13:54 | 23.36035 | 113.31896 | 48 ft | 25 kts | 194° |
| 2026-05-06 13:54 | 23.35882 | 113.31857 | 48 ft | 19 kts | 194° |
| 2026-05-06 13:54 | 23.35767 | 113.31826 | 48 ft | 14 kts | 193° |
| 2026-05-06 13:54 | 23.35671 | 113.31801 | 48 ft | 14 kts | 194° |
| 2026-05-06 13:55 | 23.35557 | 113.31766 | 48 ft | 12 kts | 212° |
| 2026-05-06 13:55 | 23.35542 | 113.31698 | 48 ft | 9 kts | 284° |
| 2026-05-06 13:55 | 23.35562 | 113.31634 | 48 ft | 9 kts | 307° |
| 2026-05-06 13:55 | 23.35598 | 113.31564 | 48 ft | 10 kts | 282° |
| 2026-05-06 13:56 | 23.35609 | 113.31519 | 48 ft | 0 kts | 285° |
| 2026-05-06 13:57 | 25.07245 | 121.23308 | 111 ft | 0 kts | 320° |